New Gloucester, ME (04260)

7:27 PM EST on March 01, 2015 (GMT -0500)
Thor's Hill | Change Station
CLOSE
Current Station
Personal Weather Station
Location: Durham,, ME
Elevation: 200 ft
Nearby Weather Stations

Elev 200 ft 43.95 °N, 70.18 °W | Updated 4 seconds ago

Overcast
Overcast
25.7 °F
Feels Like 26 °F
N
1.6
Wind Variable Wind from South
Gusts 2.7 mph

Today
High -- | Low -- °F
--% Chance of Precip.
Yesterday
High -- | Low -- °F
Precip. -- in
6:18 AM 5:28 PM
Waxing Gibbous, 88% visible
Pressure 30.24 in
Visibility 10.0 miles
Clouds Few 7500 ft
Scattered Clouds 9500 ft
Scattered Clouds 12000 ft
Windchill 26 °F
Dew Point 4 °F
Humidity 39%
Rainfall 0.00 in
Snow Depth Not available.
UV 0 out of 12
Pollen .30 out of 12
Air Quality Not available.
Flu Activity Not available.
METAR KLEW 020015Z AUTO 17004KT 10SM FEW075 SCT095 SCT120 M03/M12 A3024 RMK AO1

More Conditions Fewer Conditions

Pressure 30.24 in
Visibility 10.0 miles
Clouds Few 7500 ft
Scattered Clouds 9500 ft
Scattered Clouds 12000 ft
Windchill 26 °F
Dew Point 4 °F
Humidity 39%
Rainfall 0.00 in
Snow Depth Not available.
UV 0 out of 12
Pollen .30 out of 12
Air Quality Not available.
Flu Activity Not available.
METAR KLEW 020015Z AUTO 17004KT 10SM FEW075 SCT095 SCT120 M03/M12 A3024 RMK AO1

More Conditions Fewer Conditions

10-Day Weather Forecast

Almanac

Astronomy

Mar. 01, 2015 Rise Set
Actual Time
Civil Twilight
Nautical Twilight
Astronomical Twilight
Moon
Length of Visible Light
Length of Day
Tomorrow will be .
, % of the Moon is Illuminated

Today's Extremes

State Highs State Lows

Community

WunderPhotos

Upload Photos

1,801,647 photos uploaded!

WunderBlogs® & News

Nearby

Air Quality

  Air Quality AQ Index Pollutant
Not available.

Snow Depth

Station Depth Elevation

Earthquake Activity

City Distance Mag. Time & Date
Minimum magnitude displayed is 2.5.

Coastal Water Temperatures

Place Temperature

Nearby Weather Stations